Time;durP1;ratioP1;P1;durP2;ratioP2;P2;SDS_P1;SDS_P2;PMS_P1;PMS_P2;Temp;Humidity;BMP_temperature;BMP_pressure;BME280_temperature;BME280_humidity;BME280_pressure;Samples;Min_cycle;Max_cycle;Signal;HPM_P1;HPM_P2
2022/06/26 00:00:31;;;;;;;;;12.00;12.00;;;;;-147.17;100.00;-15917.19;5027380;28;50922;-70
2022/06/26 00:02:56;;;;;;;;;8.33;7.33;;;;;-147.17;100.00;-15917.19;5004803;28;51315;-69
2022/06/26 00:05:22;;;;;;;;;11.00;11.00;;;;;-147.17;100.00;-15917.19;5002538;28;51224;-69
2022/06/26 00:07:47;;;;;;;;;7.00;6.67;;;;;-147.17;100.00;-15917.19;5003143;28;51806;-70
2022/06/26 00:10:13;;;;;;;;;7.00;6.33;;;;;-147.17;100.00;-15917.19;4998281;28;51114;-70
2022/06/26 00:12:38;;;;;;;;;6.00;5.33;;;;;-147.17;100.00;-15917.19;5010089;28;51225;-69
2022/06/26 00:15:04;;;;;;;;;7.33;6.67;;;;;-147.17;100.00;-15917.19;4999313;28;51112;-69
2022/06/26 00:17:29;;;;;;;;;6.33;6.33;;;;;-147.17;100.00;-15917.19;5014662;28;51139;-69
2022/06/26 00:19:55;;;;;;;;;8.25;8.25;;;;;-147.17;100.00;-15917.19;4999033;28;51309;-69
2022/06/26 00:22:21;;;;;;;;;18.25;17.25;;;;;-147.17;100.00;-15917.19;5009424;28;51852;-69
2022/06/26 00:24:46;;;;;;;;;5.67;5.00;;;;;-147.17;100.00;-15917.19;5008809;28;51252;-69
2022/06/26 00:27:12;;;;;;;;;12.50;12.50;;;;;-147.17;100.00;-15917.19;5006530;28;51136;-68
2022/06/26 00:29:38;;;;;;;;;6.67;6.00;;;;;-147.17;100.00;-15917.19;5004457;28;51203;-69
2022/06/26 00:32:04;;;;;;;;;3.33;3.00;;;;;-147.17;100.00;-15917.19;5003973;28;51289;-70
2022/06/26 00:34:30;;;;;;;;;4.00;4.00;;;;;-147.17;100.00;-15917.19;5006811;28;50921;-70
2022/06/26 00:36:56;;;;;;;;;8.33;7.67;;;;;-147.17;100.00;-15917.19;5010693;28;53800;-68
2022/06/26 00:39:21;;;;;;;;;19.50;19.00;;;;;-147.17;100.00;-15917.19;4999569;28;50940;-69
2022/06/26 00:41:47;;;;;;;;;11.00;11.00;;;;;-147.17;100.00;-15917.19;5004151;28;51186;-69
2022/06/26 00:44:17;;;;;;;;;3.00;3.00;;;;;-147.17;100.00;-15917.19;5006810;28;51303;-69
2022/06/26 00:46:43;;;;;;;;;8.67;7.00;;;;;-147.17;100.00;-15917.19;4993202;28;51853;-70
2022/06/26 00:49:09;;;;;;;;;8.00;8.00;;;;;-147.17;100.00;-15917.19;5007335;28;51266;-70
2022/06/26 00:51:38;;;;;;;;;6.33;6.00;;;;;-147.17;100.00;-15917.19;4999163;28;51124;-71
2022/06/26 00:54:05;;;;;;;;;4.00;3.00;;;;;-147.17;100.00;-15917.19;5000468;28;50931;-69
2022/06/26 00:56:30;;;;;;;;;6.00;5.00;;;;;-147.17;100.00;-15917.19;4988523;28;52752;-69
2022/06/26 00:58:56;;;;;;;;;7.00;5.67;;;;;-147.17;100.00;-15917.19;5001738;28;51117;-69
2022/06/26 01:01:22;;;;;;;;;5.67;5.67;;;;;-147.17;100.00;-15917.19;5000040;28;51190;-69
2022/06/26 01:03:47;;;;;;;;;11.33;11.00;;;;;-147.17;100.00;-15917.19;5010929;28;51398;-70
2022/06/26 01:06:12;;;;;;;;;8.67;8.33;;;;;-147.17;100.00;-15917.19;5002536;28;53570;-69
2022/06/26 01:08:38;;;;;;;;;9.00;7.00;;;;;-147.17;100.00;-15917.19;5005928;28;51182;-70
2022/06/26 01:11:17;;;;;;;;;2.00;2.00;;;;;-147.17;100.00;-15917.19;5001283;28;51032;-69
2022/06/26 01:13:53;;;;;;;;;13.67;13.33;;;;;-147.17;100.00;-15917.19;4999138;28;52526;-71
2022/06/26 01:16:21;;;;;;;;;9.67;9.67;;;;;-147.17;100.00;-15917.19;5021736;28;52592;-70
2022/06/26 01:18:52;;;;;;;;;7.00;7.00;;;;;-147.17;100.00;-15917.19;4993553;28;51062;-70
2022/06/26 01:21:20;;;;;;;;;5.67;5.67;;;;;-147.17;100.00;-15917.19;5010618;28;51586;-69
2022/06/26 01:23:46;;;;;;;;;6.00;5.00;;;;;-147.17;100.00;-15917.19;5008719;28;51147;-70
2022/06/26 01:26:12;;;;;;;;;3.00;3.00;;;;;-147.17;100.00;-15917.19;5003612;28;51909;-70
2022/06/26 01:28:37;;;;;;;;;5.33;5.33;;;;;-147.17;100.00;-15917.19;5001896;28;51564;-69
2022/06/26 01:31:03;;;;;;;;;7.00;6.00;;;;;-147.17;100.00;-15917.19;5009406;28;51048;-69
2022/06/26 01:33:29;;;;;;;;;6.33;6.33;;;;;-147.17;100.00;-15917.19;4994411;28;51051;-70
2022/06/26 01:35:55;;;;;;;;;3.00;3.00;;;;;-147.17;100.00;-15917.19;5001546;28;53647;-69
2022/06/26 01:38:22;;;;;;;;;4.00;4.00;;;;;-147.17;100.00;-15917.19;5006313;28;51191;-69
2022/06/26 01:40:51;;;;;;;;;4.00;3.33;;;;;-147.17;100.00;-15917.19;5010433;28;51266;-70
2022/06/26 01:43:20;;;;;;;;;8.33;8.33;;;;;-147.17;100.00;-15917.19;4999418;28;51399;-70
2022/06/26 01:45:51;;;;;;;;;8.00;7.00;;;;;-147.17;100.00;-15917.19;5005937;28;50961;-70
2022/06/26 01:48:17;;;;;;;;;6.33;6.00;;;;;-147.17;100.00;-15917.19;5004517;28;51172;-70
2022/06/26 01:50:44;;;;;;;;;6.00;6.00;;;;;-147.17;100.00;-15917.19;5001273;28;51309;-69
2022/06/26 01:53:10;;;;;;;;;7.33;6.67;;;;;-147.17;100.00;-15917.19;5004991;28;51313;-69
2022/06/26 01:55:36;;;;;;;;;8.67;7.67;;;;;-147.17;100.00;-15917.19;4998685;28;52699;-69
2022/06/26 01:58:02;;;;;;;;;7.33;6.33;;;;;-147.17;100.00;-15917.19;5000193;28;51101;-69
2022/06/26 02:00:32;;;;;;;;;5.00;5.00;;;;;-147.17;100.00;-15917.19;5007925;28;51002;-70
2022/06/26 02:02:59;;;;;;;;;4.33;4.33;;;;;-147.17;100.00;-15917.19;4993393;28;51459;-69
2022/06/26 02:05:25;;;;;;;;;6.67;5.00;;;;;-147.17;100.00;-15917.19;5009611;28;51167;-68
2022/06/26 02:07:50;;;;;;;;;7.67;6.67;;;;;-147.17;100.00;-15917.19;5005575;28;51125;-69
2022/06/26 02:15:46;;;;;;;;;6.33;6.33;;;;;-147.17;100.00;-15917.19;5004652;28;51663;-69
2022/06/26 02:18:12;;;;;;;;;5.33;4.00;;;;;-147.17;100.00;-15917.19;5002065;28;52201;-68
2022/06/26 02:20:38;;;;;;;;;5.00;5.00;;;;;-147.17;100.00;-15917.19;5000723;28;51213;-68
2022/06/26 02:23:03;;;;;;;;;4.33;4.00;;;;;-147.17;100.00;-15917.19;5006998;28;51248;-68
2022/06/26 02:25:29;;;;;;;;;4.67;4.00;;;;;-147.17;100.00;-15917.19;4994925;28;52066;-68
2022/06/26 02:27:54;;;;;;;;;5.33;5.33;;;;;-147.17;100.00;-15917.19;4998339;28;51182;-69
2022/06/26 02:30:19;;;;;;;;;4.00;4.00;;;;;-147.17;100.00;-15917.19;5000951;28;51236;-68
2022/06/26 02:32:45;;;;;;;;;4.00;4.00;;;;;-147.17;100.00;-15917.19;4998930;28;51379;-69
2022/06/26 02:35:10;;;;;;;;;6.33;6.00;;;;;-147.17;100.00;-15917.19;5003120;28;58944;-69
2022/06/26 02:37:36;;;;;;;;;3.00;3.00;;;;;-147.17;100.00;-15917.19;5023080;28;51116;-69
2022/06/26 02:40:01;;;;;;;;;5.67;4.67;;;;;-147.17;100.00;-15917.19;4995574;28;51134;-69
2022/06/26 02:42:26;;;;;;;;;4.00;3.33;;;;;-147.17;100.00;-15917.19;4997605;28;51410;-69
2022/06/26 02:44:52;;;;;;;;;5.00;3.67;;;;;-147.17;100.00;-15917.19;5008628;28;51914;-69
2022/06/26 02:47:17;;;;;;;;;3.00;3.00;;;;;-147.17;100.00;-15917.19;5011419;28;51165;-69
2022/06/26 02:49:43;;;;;;;;;5.67;5.00;;;;;-147.17;100.00;-15917.19;4997566;28;51476;-68
2022/06/26 02:52:08;;;;;;;;;4.00;4.00;;;;;-147.17;100.00;-15917.19;5002690;28;51415;-69
2022/06/26 02:54:33;;;;;;;;;5.33;5.33;;;;;-147.17;100.00;-15917.19;5006039;28;50995;-69
2022/06/26 02:56:59;;;;;;;;;5.00;5.00;;;;;-147.17;100.00;-15917.19;5001568;28;50966;-69
2022/06/26 02:59:24;;;;;;;;;7.00;6.00;;;;;-147.17;100.00;-15917.19;5009112;28;50848;-69
2022/06/26 03:01:49;;;;;;;;;5.00;4.33;;;;;-147.17;100.00;-15917.19;5015603;28;50902;-69
2022/06/26 03:04:15;;;;;;;;;6.00;4.67;;;;;-147.17;100.00;-15917.19;5000053;28;53701;-70
2022/06/26 03:06:40;;;;;;;;;6.00;4.67;;;;;-147.17;100.00;-15917.19;5022011;28;51015;-68
2022/06/26 03:09:06;;;;;;;;;6.00;5.00;;;;;-147.17;100.00;-15917.19;5006330;28;51546;-69
2022/06/26 03:11:31;;;;;;;;;4.67;4.67;;;;;-147.17;100.00;-15917.19;5021977;28;50915;-69
2022/06/26 03:13:56;;;;;;;;;3.00;3.00;;;;;-147.17;100.00;-15917.19;5001345;28;50951;-68
2022/06/26 03:16:22;;;;;;;;;6.00;5.00;;;;;-147.17;100.00;-15917.19;5008795;28;51270;-68
2022/06/26 03:18:47;;;;;;;;;6.33;6.33;;;;;-147.17;100.00;-15917.19;5003705;28;51049;-69
2022/06/26 03:21:13;;;;;;;;;6.00;5.00;;;;;-147.17;100.00;-15917.19;5022846;28;51288;-69
2022/06/26 03:26:22;;;;;;;;;4.00;4.00;;;;;-147.17;100.00;-15917.19;5004124;28;51095;-69
2022/06/26 03:28:48;;;;;;;;;6.00;6.00;;;;;-147.17;100.00;-15917.19;4996621;28;51007;-69
2022/06/26 03:31:13;;;;;;;;;4.33;4.33;;;;;-147.17;100.00;-15917.19;5002008;28;51177;-69
2022/06/26 03:33:39;;;;;;;;;3.67;3.67;;;;;-147.17;100.00;-15917.19;4999815;28;51775;-68
2022/06/26 03:36:08;;;;;;;;;4.00;3.00;;;;;-147.17;100.00;-15917.19;5003000;28;51043;-69
2022/06/26 03:38:34;;;;;;;;;10.00;9.33;;;;;-147.17;100.00;-15917.19;4998771;28;50903;-69
2022/06/26 03:40:59;;;;;;;;;5.00;4.00;;;;;-147.17;100.00;-15917.19;5010995;28;50903;-69
2022/06/26 03:43:25;;;;;;;;;5.00;5.00;;;;;-147.17;100.00;-15917.19;4994469;28;52404;-69
2022/06/26 03:45:50;;;;;;;;;7.00;5.00;;;;;-147.17;100.00;-15917.19;5006592;28;51131;-68
2022/06/26 03:48:15;;;;;;;;;4.00;3.33;;;;;-147.17;100.00;-15917.19;5008291;28;51119;-69
2022/06/26 03:50:41;;;;;;;;;6.00;5.67;;;;;-147.17;100.00;-15917.19;5006087;28;51178;-68
2022/06/26 03:53:06;;;;;;;;;2.67;2.00;;;;;-147.17;100.00;-15917.19;5013050;28;52170;-68
2022/06/26 03:55:31;;;;;;;;;4.00;3.67;;;;;-147.17;100.00;-15917.19;5010338;28;51064;-69
2022/06/26 03:57:57;;;;;;;;;4.67;3.33;;;;;-147.17;100.00;-15917.19;4996296;28;51541;-68
2022/06/26 04:00:22;;;;;;;;;3.00;3.00;;;;;-147.17;100.00;-15917.19;5003754;28;51080;-69
2022/06/26 04:02:48;;;;;;;;;5.00;4.67;;;;;-147.17;100.00;-15917.19;4999560;28;52795;-69
2022/06/26 04:05:13;;;;;;;;;3.00;3.00;;;;;-147.17;100.00;-15917.19;5029572;28;51066;-69
2022/06/26 04:07:39;;;;;;;;;3.33;3.33;;;;;-147.17;100.00;-15917.19;5011641;28;51086;-69
2022/06/26 04:10:05;;;;;;;;;4.33;4.33;;;;;-147.17;100.00;-15917.19;5013248;28;50919;-70
2022/06/26 04:12:30;;;;;;;;;3.67;3.67;;;;;-147.17;100.00;-15917.19;4977868;28;52950;-68
2022/06/26 04:14:55;;;;;;;;;3.00;3.00;;;;;-147.17;100.00;-15917.19;4998987;28;51158;-69
2022/06/26 04:17:21;;;;;;;;;6.67;6.67;;;;;-147.17;100.00;-15917.19;5015079;28;51210;-68
2022/06/26 04:19:47;;;;;;;;;5.00;4.33;;;;;-147.17;100.00;-15917.19;5000773;28;51218;-69
2022/06/26 04:22:12;;;;;;;;;5.00;4.00;;;;;-147.17;100.00;-15917.19;5001711;28;51107;-69
2022/06/26 04:24:37;;;;;;;;;5.00;4.00;;;;;-147.17;100.00;-15917.19;5000353;28;51248;-69
2022/06/26 04:27:03;;;;;;;;;3.00;3.00;;;;;-147.17;100.00;-15917.19;5006245;28;51317;-69
2022/06/26 04:29:29;;;;;;;;;3.00;3.00;;;;;-147.17;100.00;-15917.19;4997384;28;51001;-69
2022/06/26 04:31:54;;;;;;;;;4.67;4.00;;;;;-147.17;100.00;-15917.19;5010252;28;53711;-69
2022/06/26 04:34:20;;;;;;;;;3.00;3.00;;;;;-147.17;100.00;-15917.19;4999321;28;51191;-68
2022/06/26 04:36:45;;;;;;;;;3.33;2.67;;;;;-147.17;100.00;-15917.19;5006016;28;51362;-69
2022/06/26 04:39:10;;;;;;;;;2.00;2.00;;;;;-147.17;100.00;-15917.19;4994212;28;50948;-69
2022/06/26 04:41:36;;;;;;;;;2.67;2.33;;;;;-147.17;100.00;-15917.19;5005931;28;51874;-69
2022/06/26 04:44:03;;;;;;;;;3.00;3.00;;;;;-147.17;100.00;-15917.19;5001854;28;51183;-68
2022/06/26 04:46:29;;;;;;;;;5.00;5.00;;;;;-147.17;100.00;-15917.19;4997883;28;52187;-69
2022/06/26 04:48:54;;;;;;;;;2.00;2.00;;;;;-147.17;100.00;-15917.19;5015996;28;50999;-69
2022/06/26 04:51:19;;;;;;;;;1.33;1.33;;;;;-147.17;100.00;-15917.19;5027914;28;52651;-68
2022/06/26 04:53:45;;;;;;;;;2.33;2.33;;;;;-147.17;100.00;-15917.19;5009692;28;51144;-68
2022/06/26 04:56:11;;;;;;;;;4.33;4.00;;;;;-147.17;100.00;-15917.19;5001488;28;51021;-68
2022/06/26 04:58:36;;;;;;;;;4.00;4.00;;;;;-147.17;100.00;-15917.19;4992556;28;51000;-68
2022/06/26 05:01:02;;;;;;;;;3.00;2.00;;;;;-147.17;100.00;-15917.19;5003739;28;52230;-71
2022/06/26 05:03:28;;;;;;;;;4.00;3.67;;;;;-147.17;100.00;-15917.19;4997971;28;50952;-70
2022/06/26 05:05:53;;;;;;;;;4.00;3.00;;;;;-147.17;100.00;-15917.19;5002160;28;51151;-69
2022/06/26 05:08:19;;;;;;;;;2.00;1.00;;;;;-147.17;100.00;-15917.19;5000555;28;51312;-69
2022/06/26 05:10:44;;;;;;;;;3.00;3.00;;;;;-147.17;100.00;-15917.19;5000365;28;51869;-69
2022/06/26 05:13:10;;;;;;;;;3.00;2.67;;;;;-147.17;100.00;-15917.19;5008860;28;51120;-69
2022/06/26 05:15:35;;;;;;;;;4.00;4.00;;;;;-147.17;100.00;-15917.19;5003746;28;50941;-69
2022/06/26 05:18:00;;;;;;;;;2.00;2.00;;;;;-147.17;100.00;-15917.19;5002737;28;51362;-69
2022/06/26 05:20:26;;;;;;;;;3.00;3.00;;;;;-147.17;100.00;-15917.19;5000020;28;51651;-70
2022/06/26 05:22:51;;;;;;;;;2.33;2.33;;;;;-147.17;100.00;-15917.19;4995919;28;51047;-69
2022/06/26 05:25:16;;;;;;;;;5.00;4.00;;;;;-147.17;100.00;-15917.19;5016632;28;51156;-69
2022/06/26 05:27:42;;;;;;;;;5.00;3.33;;;;;-147.17;100.00;-15917.19;4998610;28;51177;-69
2022/06/26 05:30:08;;;;;;;;;4.00;3.00;;;;;-147.17;100.00;-15917.19;4994181;28;52397;-69
2022/06/26 05:32:33;;;;;;;;;2.00;2.00;;;;;-147.17;100.00;-15917.19;5025126;28;51698;-70
2022/06/26 05:34:58;;;;;;;;;3.00;2.67;;;;;-147.17;100.00;-15917.19;5010091;28;51771;-70
2022/06/26 05:37:24;;;;;;;;;3.33;3.00;;;;;-147.17;100.00;-15917.19;4995051;28;51042;-69
2022/06/26 05:39:49;;;;;;;;;3.00;3.00;;;;;-147.17;100.00;-15917.19;4996257;28;51093;-69
2022/06/26 05:42:14;;;;;;;;;2.00;2.00;;;;;-147.17;100.00;-15917.19;5002254;28;51238;-69
2022/06/26 05:44:40;;;;;;;;;3.00;3.00;;;;;-147.17;100.00;-15917.19;5000633;28;51507;-70
2022/06/26 05:47:05;;;;;;;;;4.33;3.67;;;;;-147.17;100.00;-15917.19;5019787;28;51362;-69
2022/06/26 05:49:30;;;;;;;;;2.33;2.33;;;;;-147.17;100.00;-15917.19;5006582;28;51086;-70
2022/06/26 05:51:56;;;;;;;;;5.00;3.00;;;;;-147.17;100.00;-15917.19;5001918;28;51152;-69
2022/06/26 05:54:21;;;;;;;;;3.67;3.00;;;;;-147.17;100.00;-15917.19;5007953;28;51014;-68
2022/06/26 05:56:46;;;;;;;;;3.33;3.00;;;;;-147.17;100.00;-15917.19;4992965;28;50916;-69
2022/06/26 05:59:12;;;;;;;;;2.00;1.00;;;;;-147.17;100.00;-15917.19;4990936;28;52471;-68
2022/06/26 06:01:37;;;;;;;;;2.33;2.33;;;;;-147.17;100.00;-15917.19;4997658;28;50903;-70
2022/06/26 06:04:03;;;;;;;;;3.00;2.67;;;;;-147.17;100.00;-15917.19;5017815;28;51171;-69
2022/06/26 06:06:28;;;;;;;;;2.00;2.00;;;;;-147.17;100.00;-15917.19;5001680;28;50943;-69
2022/06/26 06:08:54;;;;;;;;;3.67;3.00;;;;;-147.17;100.00;-15917.19;4994376;28;51897;-69
2022/06/26 06:11:19;;;;;;;;;3.00;3.00;;;;;-147.17;100.00;-15917.19;4997065;28;50874;-69
2022/06/26 06:13:45;;;;;;;;;3.67;3.00;;;;;-147.17;100.00;-15917.19;5004151;28;51007;-70
2022/06/26 06:16:10;;;;;;;;;3.33;2.00;;;;;-147.17;100.00;-15917.19;5006486;28;51135;-69
2022/06/26 06:18:36;;;;;;;;;3.00;3.00;;;;;-147.17;100.00;-15917.19;5002719;28;51833;-69
2022/06/26 06:21:01;;;;;;;;;1.33;1.00;;;;;-147.17;100.00;-15917.19;5005233;28;51244;-68
2022/06/26 06:23:26;;;;;;;;;3.00;3.00;;;;;-147.17;100.00;-15917.19;4995019;28;50981;-70
2022/06/26 06:25:52;;;;;;;;;2.00;2.00;;;;;-147.17;100.00;-15917.19;4993856;28;51913;-69
2022/06/26 06:28:18;;;;;;;;;4.00;3.00;;;;;-147.17;100.00;-15917.19;4995142;28;52046;-69
2022/06/26 06:30:44;;;;;;;;;2.00;2.00;;;;;-147.17;100.00;-15917.19;5018623;28;50971;-70
2022/06/26 06:33:09;;;;;;;;;4.00;2.00;;;;;-147.17;100.00;-15917.19;4992766;28;51164;-70
2022/06/26 06:35:35;;;;;;;;;5.00;4.00;;;;;-147.17;100.00;-15917.19;5002485;28;51042;-69
2022/06/26 06:38:01;;;;;;;;;4.00;3.00;;;;;-147.17;100.00;-15917.19;4992108;28;51028;-69
2022/06/26 06:40:26;;;;;;;;;1.67;1.67;;;;;-147.17;100.00;-15917.19;5011543;28;51184;-69
2022/06/26 06:42:52;;;;;;;;;3.00;2.67;;;;;-147.17;100.00;-15917.19;4992603;28;51021;-70
2022/06/26 06:45:17;;;;;;;;;2.67;2.67;;;;;-147.17;100.00;-15917.19;4994172;28;51074;-69
2022/06/26 06:47:42;;;;;;;;;1.67;1.67;;;;;-147.17;100.00;-15917.19;5001559;28;50966;-70
2022/06/26 06:50:08;;;;;;;;;1.33;1.33;;;;;-147.17;100.00;-15917.19;5008840;28;50978;-68
2022/06/26 06:52:34;;;;;;;;;2.00;2.00;;;;;-147.17;100.00;-15917.19;4998811;28;51134;-69
2022/06/26 06:55:00;;;;;;;;;3.00;3.00;;;;;-147.17;100.00;-15917.19;5007322;28;51115;-70
2022/06/26 06:57:25;;;;;;;;;3.33;3.00;;;;;-147.17;100.00;-15917.19;5013742;28;51774;-69
2022/06/26 06:59:51;;;;;;;;;3.00;3.00;;;;;-147.17;100.00;-15917.19;5002962;28;51125;-68
2022/06/26 07:02:16;;;;;;;;;2.67;2.67;;;;;-147.17;100.00;-15917.19;5021516;28;50999;-69
2022/06/26 07:04:41;;;;;;;;;2.00;1.00;;;;;-147.17;100.00;-15917.19;5007103;28;50942;-69
2022/06/26 07:07:07;;;;;;;;;4.00;3.00;;;;;-147.17;100.00;-15917.19;5010498;28;51831;-69
2022/06/26 07:09:32;;;;;;;;;3.67;2.67;;;;;-147.17;100.00;-15917.19;4999111;28;51186;-69
2022/06/26 07:11:58;;;;;;;;;2.67;2.00;;;;;-147.17;100.00;-15917.19;5014471;28;51036;-70
2022/06/26 07:14:24;;;;;;;;;1.67;1.67;;;;;-147.17;100.00;-15917.19;5006355;28;51348;-70
2022/06/26 07:16:49;;;;;;;;;2.67;1.00;;;;;-147.17;100.00;-15917.19;5004172;28;51849;-69
2022/06/26 07:19:15;;;;;;;;;1.00;1.00;;;;;-147.17;100.00;-15917.19;4999353;28;51126;-68
2022/06/26 07:21:43;;;;;;;;;1.00;1.00;;;;;-147.17;100.00;-15917.19;4995646;28;51124;-69
2022/06/26 07:24:09;;;;;;;;;1.33;1.33;;;;;-147.17;100.00;-15917.19;5008982;28;51011;-69
2022/06/26 07:26:35;;;;;;;;;1.00;1.00;;;;;-147.17;100.00;-15917.19;5005076;28;51199;-66
2022/06/26 07:29:00;;;;;;;;;1.00;1.00;;;;;-147.17;100.00;-15917.19;4996664;28;51011;-66
2022/06/26 07:31:26;;;;;;;;;2.00;1.00;;;;;-147.17;100.00;-15917.19;5005262;28;50943;-67
2022/06/26 07:36:35;;;;;;;;;2.67;2.00;;;;;-147.17;100.00;-15917.19;5007849;28;51187;-66
2022/06/26 07:39:01;;;;;;;;;1.00;1.00;;;;;-147.17;100.00;-15917.19;5013322;28;51016;-66
2022/06/26 07:41:26;;;;;;;;;0.67;0.67;;;;;-147.17;100.00;-15917.19;5008637;28;50986;-67
2022/06/26 07:43:52;;;;;;;;;1.00;1.00;;;;;-147.17;100.00;-15917.19;5010530;28;51430;-67
2022/06/26 07:46:17;;;;;;;;;1.00;1.00;;;;;-147.17;100.00;-15917.19;5011805;28;51880;-67
2022/06/26 07:48:42;;;;;;;;;0.00;0.00;;;;;-147.17;100.00;-15917.19;5002681;28;51314;-67
2022/06/26 07:51:08;;;;;;;;;2.00;2.00;;;;;-147.17;100.00;-15917.19;5006410;28;51765;-68
2022/06/26 07:53:33;;;;;;;;;1.67;1.67;;;;;-147.17;100.00;-15917.19;5011040;28;51058;-67
2022/06/26 07:55:59;;;;;;;;;1.00;1.00;;;;;-147.17;100.00;-15917.19;4997335;28;51720;-68
2022/06/26 07:58:24;;;;;;;;;2.33;2.33;;;;;-147.17;100.00;-15917.19;5007823;28;51080;-67
2022/06/26 08:00:49;;;;;;;;;2.00;2.00;;;;;-147.17;100.00;-15917.19;5012312;28;51167;-67
2022/06/26 08:03:15;;;;;;;;;2.00;1.00;;;;;-147.17;100.00;-15917.19;5008186;28;51072;-67
2022/06/26 08:05:42;;;;;;;;;3.00;2.00;;;;;-147.17;100.00;-15917.19;5007080;28;52362;-68
2022/06/26 08:08:08;;;;;;;;;1.33;1.33;;;;;-147.17;100.00;-15917.19;5009961;28;51237;-68
2022/06/26 08:10:34;;;;;;;;;2.00;2.00;;;;;-147.17;100.00;-15917.19;5001345;28;51225;-67
2022/06/26 08:13:00;;;;;;;;;2.33;2.00;;;;;-147.17;100.00;-15917.19;5006240;28;51166;-67
2022/06/26 08:15:26;;;;;;;;;1.00;1.00;;;;;-147.17;100.00;-15917.19;5001589;28;51954;-67
2022/06/26 08:17:51;;;;;;;;;2.00;1.67;;;;;-147.17;100.00;-15917.19;4996756;28;51014;-66
2022/06/26 08:20:17;;;;;;;;;1.00;1.00;;;;;-147.17;100.00;-15917.19;4997479;28;50844;-66
2022/06/26 08:22:42;;;;;;;;;5.67;5.33;;;;;-147.17;100.00;-15917.19;5008145;28;50894;-68
2022/06/26 08:25:08;;;;;;;;;13.00;11.67;;;;;-147.17;100.00;-15917.19;5013336;28;51928;-66
2022/06/26 08:27:34;;;;;;;;;2.33;2.00;;;;;-147.17;100.00;-15917.19;5013576;28;50980;-66
2022/06/26 08:29:59;;;;;;;;;2.00;2.00;;;;;-147.17;100.00;-15917.19;5013848;28;51240;-66
2022/06/26 08:32:25;;;;;;;;;1.00;1.00;;;;;-147.17;100.00;-15917.19;4998260;28;51140;-67
2022/06/26 08:34:51;;;;;;;;;2.67;1.00;;;;;-147.17;100.00;-15915.72;5012683;28;51231;-67
2022/06/26 08:37:16;;;;;;;;;2.00;2.00;;;;;-147.17;100.00;-15915.72;4993493;28;51231;-67
2022/06/26 08:39:43;;;;;;;;;2.33;2.33;;;;;-147.17;100.00;-15915.72;5008328;28;50956;-69
2022/06/26 08:42:09;;;;;;;;;1.33;1.33;;;;;-147.17;100.00;-15668.00;4993711;28;50879;-67
2022/06/26 08:44:42;;;;;;;;;1.00;1.00;;;;;-147.17;100.00;-15420.25;4997451;28;51106;-67
2022/06/26 08:47:09;;;;;;;;;2.33;2.33;;;;;-147.17;100.00;-15420.25;4994116;28;51010;-68
2022/06/26 08:49:35;;;;;;;;;3.00;3.00;;;;;-147.17;100.00;-15172.50;4997063;28;50836;-67
2022/06/26 08:52:02;;;;;;;;;1.00;1.00;;;;;-147.17;100.00;-15420.25;4998960;28;51161;-68
2022/06/26 08:54:29;;;;;;;;;2.00;2.00;;;;;-147.17;100.00;-15172.50;4999524;28;53556;-68
2022/06/26 08:56:55;;;;;;;;;1.33;1.33;;;;;-147.17;100.00;-15172.50;5014892;28;51083;-68
2022/06/26 08:59:21;;;;;;;;;1.00;1.00;;;;;-147.17;100.00;-15172.50;5012989;28;51164;-68
2022/06/26 09:01:47;;;;;;;;;1.00;1.00;;;;;-147.17;100.00;-14676.94;5013578;28;51320;-67
2022/06/26 09:04:13;;;;;;;;;1.33;1.00;;;;;-147.17;100.00;-14676.94;4994955;28;52531;-67
2022/06/26 09:06:41;;;;;;;;;2.00;2.00;;;;;-147.17;100.00;-14676.94;5002771;28;51199;-69
2022/06/26 09:09:23;;;;;;;;;3.00;2.67;;;;;-147.17;100.00;-14429.16;5009697;28;51032;-68
2022/06/26 09:11:51;;;;;;;;;1.67;1.67;;;;;-147.17;100.00;-14181.31;4999422;28;51155;-69
2022/06/26 09:14:17;;;;;;;;;1.67;1.67;;;;;-147.17;100.00;-13933.50;5000804;28;51952;-69
2022/06/26 09:16:44;;;;;;;;;2.00;2.00;;;;;-147.17;100.00;-13933.50;5009372;28;51132;-69
2022/06/26 09:19:11;;;;;;;;;2.00;1.67;;;;;-147.17;100.00;-13933.50;5003902;28;51212;-67
2022/06/26 09:21:36;;;;;;;;;1.00;0.33;;;;;-147.17;100.00;-13685.63;4998588;28;51321;-69
2022/06/26 09:24:02;;;;;;;;;1.00;1.00;;;;;-147.17;100.00;-13437.75;5023940;28;51999;-69
2022/06/26 09:26:27;;;;;;;;;1.33;1.33;;;;;-147.17;100.00;-13189.88;5007848;28;51077;-69
2022/06/26 09:28:53;;;;;;;;;1.67;1.67;;;;;-147.17;100.00;-12941.97;5003637;28;50895;-68
2022/06/26 09:31:20;;;;;;;;;2.33;2.00;;;;;-147.17;100.00;-12694.06;5000966;28;51069;-68
2022/06/26 09:33:46;;;;;;;;;2.67;2.67;;;;;-147.17;100.00;-12198.19;5008249;28;51292;-68
2022/06/26 09:36:17;;;;;;;;;1.00;1.00;;;;;-147.17;100.00;-11702.25;4998632;28;51170;-68
2022/06/26 09:38:50;;;;;;;;;1.00;1.00;;;;;-147.17;100.00;-11454.25;5012911;28;51237;-69
2022/06/26 09:41:16;;;;;;;;;3.00;2.00;;;;;-147.17;100.00;-11206.22;5005433;28;51489;-70
2022/06/26 09:43:43;;;;;;;;;1.33;1.33;;;;;-147.17;100.00;-11454.25;5000080;28;51123;-70
2022/06/26 09:46:13;;;;;;;;;3.00;2.00;;;;;-147.17;100.00;-11206.22;4992243;28;52129;-68
2022/06/26 09:48:40;;;;;;;;;4.00;3.00;;;;;-147.17;100.00;-15917.19;5013013;28;51322;-68
2022/06/26 09:51:13;;;;;;;;;3.00;3.00;;;;;-147.17;100.00;59696.56;5015903;28;52185;-67
2022/06/26 09:53:39;;;;;;;;;5.00;4.33;;;;;-147.17;100.00;59696.56;5002951;28;51974;-58
2022/06/26 09:56:05;;;;;;;;;2.00;2.00;;;;;-147.17;100.00;59696.56;5007667;28;51205;-60
2022/06/26 09:58:31;;;;;;;;;4.67;4.67;;;;;-147.17;100.00;59696.56;4996761;28;51020;-61
2022/06/26 10:06:31;;;;;;;;;19.33;19.00;;;;;-147.17;100.00;59696.56;4997617;28;51104;-69
2022/06/26 10:08:59;;;;;;;;;3.00;2.33;;;;;-147.17;100.00;59696.56;4999184;28;51127;-69
2022/06/26 10:11:27;;;;;;;;;4.67;4.00;;;;;-147.17;100.00;59696.56;5004783;28;51288;-67
2022/06/26 10:13:57;;;;;;;;;3.00;3.00;;;;;-147.17;100.00;59696.56;5007155;28;51133;-68
2022/06/26 10:16:23;;;;;;;;;3.00;3.00;;;;;-147.17;100.00;59696.56;5003523;28;51109;-69
2022/06/26 10:19:05;;;;;;;;;7.67;7.00;;;;;-147.17;100.00;59696.56;5004351;28;51112;-71
2022/06/26 10:21:38;;;;;;;;;3.67;3.00;;;;;-147.17;100.00;59696.56;5001988;28;51362;-68
2022/06/26 10:24:05;;;;;;;;;4.33;4.00;;;;;-147.17;100.00;59696.56;4996928;28;51966;-68
2022/06/26 10:26:32;;;;;;;;;1.67;1.67;;;;;-147.17;100.00;59696.56;5004440;28;51203;-68
2022/06/26 10:29:11;;;;;;;;;3.67;3.67;;;;;-147.17;100.00;59696.56;5006904;28;51137;-67
2022/06/26 10:31:47;;;;;;;;;2.00;2.00;;;;;-147.17;100.00;59696.56;5004353;28;51762;-68
2022/06/26 10:34:21;;;;;;;;;3.00;3.00;;;;;-147.17;100.00;59696.56;4997373;28;51007;-67
2022/06/26 10:37:10;;;;;;;;;4.00;3.00;;;;;-147.17;100.00;59696.56;5006036;28;51042;-66
2022/06/26 10:39:45;;;;;;;;;3.67;2.67;;;;;-147.17;100.00;59696.56;5002475;28;51165;-67
2022/06/26 10:45:35;;;;;;;;;3.33;3.33;;;;;-147.17;100.00;59696.56;5003361;28;51673;-68
2022/06/26 10:48:09;;;;;;;;;3.33;3.33;;;;;-147.17;100.00;59696.56;4997224;28;50868;-67
2022/06/26 10:50:35;;;;;;;;;4.00;4.00;;;;;-147.17;100.00;59696.56;4995114;28;50986;-68
2022/06/26 10:53:17;;;;;;;;;5.00;5.00;;;;;-147.17;100.00;59696.56;5003560;28;51105;-69
2022/06/26 10:55:55;;;;;;;;;5.00;2.00;;;;;-147.17;100.00;59696.56;5002863;28;54138;-66
2022/06/26 10:58:30;;;;;;;;;3.33;3.33;;;;;-147.17;100.00;59696.56;5013291;28;51136;-68
2022/06/26 11:00:58;;;;;;;;;3.00;3.00;;;;;-147.17;100.00;59696.56;5006184;28;51221;-67
2022/06/26 11:03:25;;;;;;;;;4.33;4.33;;;;;-147.17;100.00;59696.56;4994696;28;51144;-68
2022/06/26 11:05:58;;;;;;;;;5.00;4.00;;;;;-147.17;100.00;59696.56;4994041;28;51797;-68
2022/06/26 11:08:33;;;;;;;;;5.00;4.33;;;;;-147.17;100.00;59696.56;4994495;28;51022;-68
2022/06/26 11:11:09;;;;;;;;;5.00;4.00;;;;;-147.17;100.00;59696.56;5006312;28;51064;-69
2022/06/26 11:13:36;;;;;;;;;6.00;4.00;;;;;-147.17;100.00;59696.56;5007949;28;50990;-71
2022/06/26 11:16:03;;;;;;;;;3.67;3.67;;;;;-147.17;100.00;59696.56;5004084;28;51276;-68
2022/06/26 11:18:36;;;;;;;;;2.33;2.33;;;;;-147.17;100.00;59696.56;4993600;28;50990;-67